Indiahoma, Oklahoma
Current Conditions -  °F | °C
As of 12:53 AM on Sunday 26 Oct 2014 (Local Time) from KLAW Reporting Station
Clear Clear  
Wind Chill: 66°   Ceiling: Unl
Heat Index: 66°   Visibility: 10mi
Dew Point: 56°   Wind: 7mph
Humidity: 70%   Direction: 170°S
Pressure: 29.99"   Gusts: NA
Location:  34.62°N, 98.75°W
Report Text: KLAW 260553Z AUTO 17006KT 10SM CLR 19/13 A2999 RMK AO2 SLP144 T01890133 10272 20189 403330117 58008
Loading
Personal Weather Stations






























Interactive Weather Map
Tropical Storm Tracking
New forecast layout! Learn more

10-Day Weather Forecast

Advertisements
Track Severe Weather on mobile